sensor_id;sensor_type;location;lat;lon;timestamp;P1;durP1;ratioP1;P2;durP2;ratioP2
17947;SDS011;9099;47.958;11.366;2024-02-28T00:01:15;9.13;;;8.15;;
17947;SDS011;9099;47.958;11.366;2024-02-28T00:03:42;9.55;;;8.55;;
17947;SDS011;9099;47.958;11.366;2024-02-28T00:06:09;8.35;;;7.63;;
17947;SDS011;9099;47.958;11.366;2024-02-28T00:08:36;9.95;;;8.82;;
17947;SDS011;9099;47.958;11.366;2024-02-28T00:11:03;13.43;;;9.88;;
17947;SDS011;9099;47.958;11.366;2024-02-28T00:13:30;11.48;;;9.82;;
17947;SDS011;9099;47.958;11.366;2024-02-28T00:15:57;9.65;;;8.68;;
17947;SDS011;9099;47.958;11.366;2024-02-28T00:18:25;11.73;;;9.82;;
17947;SDS011;9099;47.958;11.366;2024-02-28T00:20:52;11.18;;;9.63;;
17947;SDS011;9099;47.958;11.366;2024-02-28T00:23:19;10.93;;;9.77;;
17947;SDS011;9099;47.958;11.366;2024-02-28T00:25:46;10.95;;;9.73;;
17947;SDS011;9099;47.958;11.366;2024-02-28T00:28:13;10.93;;;9.75;;
17947;SDS011;9099;47.958;11.366;2024-02-28T00:30:40;13.30;;;10.30;;
17947;SDS011;9099;47.958;11.366;2024-02-28T00:33:07;12.02;;;9.15;;
17947;SDS011;9099;47.958;11.366;2024-02-28T00:35:35;12.57;;;9.95;;
17947;SDS011;9099;47.958;11.366;2024-02-28T00:38:02;12.38;;;9.50;;
17947;SDS011;9099;47.958;11.366;2024-02-28T00:40:29;11.88;;;9.50;;
17947;SDS011;9099;47.958;11.366;2024-02-28T00:42:56;10.32;;;8.75;;
17947;SDS011;9099;47.958;11.366;2024-02-28T00:45:23;10.35;;;8.00;;
17947;SDS011;9099;47.958;11.366;2024-02-28T00:47:50;11.70;;;8.75;;
17947;SDS011;9099;47.958;11.366;2024-02-28T00:50:19;9.43;;;8.13;;
17947;SDS011;9099;47.958;11.366;2024-02-28T00:52:48;9.77;;;8.25;;
17947;SDS011;9099;47.958;11.366;2024-02-28T00:55:15;9.38;;;8.43;;
17947;SDS011;9099;47.958;11.366;2024-02-28T00:57:43;10.30;;;8.25;;
17947;SDS011;9099;47.958;11.366;2024-02-28T01:00:11;9.98;;;8.40;;
17947;SDS011;9099;47.958;11.366;2024-02-28T01:02:39;10.43;;;8.55;;
17947;SDS011;9099;47.958;11.366;2024-02-28T01:05:06;11.70;;;10.10;;
17947;SDS011;9099;47.958;11.366;2024-02-28T01:07:34;11.80;;;9.25;;
17947;SDS011;9099;47.958;11.366;2024-02-28T01:10:02;11.68;;;10.05;;
17947;SDS011;9099;47.958;11.366;2024-02-28T01:12:30;12.20;;;10.40;;
17947;SDS011;9099;47.958;11.366;2024-02-28T01:14:57;12.00;;;9.93;;
17947;SDS011;9099;47.958;11.366;2024-02-28T01:17:23;13.38;;;10.35;;
17947;SDS011;9099;47.958;11.366;2024-02-28T01:19:50;14.10;;;10.95;;
17947;SDS011;9099;47.958;11.366;2024-02-28T01:22:17;13.55;;;10.32;;
17947;SDS011;9099;47.958;11.366;2024-02-28T01:24:44;11.43;;;10.27;;
17947;SDS011;9099;47.958;11.366;2024-02-28T01:27:12;14.23;;;11.35;;
17947;SDS011;9099;47.958;11.366;2024-02-28T01:29:39;12.32;;;9.52;;
17947;SDS011;9099;47.958;11.366;2024-02-28T01:32:07;12.77;;;10.10;;
17947;SDS011;9099;47.958;11.366;2024-02-28T01:34:34;11.30;;;9.98;;
17947;SDS011;9099;47.958;11.366;2024-02-28T01:37:00;10.35;;;9.25;;
17947;SDS011;9099;47.958;11.366;2024-02-28T01:39:27;12.30;;;9.25;;
17947;SDS011;9099;47.958;11.366;2024-02-28T01:41:54;13.38;;;10.25;;
17947;SDS011;9099;47.958;11.366;2024-02-28T01:44:23;9.88;;;8.60;;
17947;SDS011;9099;47.958;11.366;2024-02-28T01:46:50;13.38;;;9.65;;
17947;SDS011;9099;47.958;11.366;2024-02-28T01:49:20;9.40;;;8.43;;
17947;SDS011;9099;47.958;11.366;2024-02-28T01:51:46;9.90;;;8.85;;
17947;SDS011;9099;47.958;11.366;2024-02-28T01:54:14;10.20;;;8.88;;
17947;SDS011;9099;47.958;11.366;2024-02-28T01:56:41;12.43;;;9.85;;
17947;SDS011;9099;47.958;11.366;2024-02-28T01:59:10;10.23;;;9.05;;
17947;SDS011;9099;47.958;11.366;2024-02-28T02:01:39;10.35;;;8.60;;
17947;SDS011;9099;47.958;11.366;2024-02-28T02:04:06;9.15;;;8.15;;
17947;SDS011;9099;47.958;11.366;2024-02-28T02:06:33;11.13;;;9.90;;
17947;SDS011;9099;47.958;11.366;2024-02-28T02:09:03;11.13;;;8.30;;
17947;SDS011;9099;47.958;11.366;2024-02-28T02:11:30;11.15;;;8.77;;
17947;SDS011;9099;47.958;11.366;2024-02-28T02:13:57;9.57;;;8.50;;
17947;SDS011;9099;47.958;11.366;2024-02-28T02:16:24;9.70;;;8.35;;
17947;SDS011;9099;47.958;11.366;2024-02-28T02:18:53;9.55;;;8.35;;
17947;SDS011;9099;47.958;11.366;2024-02-28T02:21:23;9.57;;;8.55;;
17947;SDS011;9099;47.958;11.366;2024-02-28T02:23:51;10.52;;;8.43;;
17947;SDS011;9099;47.958;11.366;2024-02-28T02:26:18;10.20;;;9.10;;
17947;SDS011;9099;47.958;11.366;2024-02-28T02:28:45;11.68;;;8.93;;
17947;SDS011;9099;47.958;11.366;2024-02-28T02:31:12;9.02;;;8.13;;
17947;SDS011;9099;47.958;11.366;2024-02-28T02:33:40;11.75;;;9.90;;
17947;SDS011;9099;47.958;11.366;2024-02-28T02:36:06;10.43;;;9.20;;
17947;SDS011;9099;47.958;11.366;2024-02-28T02:38:33;12.68;;;9.90;;
17947;SDS011;9099;47.958;11.366;2024-02-28T02:41:02;13.13;;;10.18;;
17947;SDS011;9099;47.958;11.366;2024-02-28T02:43:29;11.02;;;9.88;;
17947;SDS011;9099;47.958;11.366;2024-02-28T02:45:56;10.48;;;9.30;;
17947;SDS011;9099;47.958;11.366;2024-02-28T02:48:23;11.07;;;9.23;;
17947;SDS011;9099;47.958;11.366;2024-02-28T02:50:50;9.25;;;8.27;;
17947;SDS011;9099;47.958;11.366;2024-02-28T02:53:17;9.88;;;8.68;;
17947;SDS011;9099;47.958;11.366;2024-02-28T02:55:44;11.27;;;9.27;;
17947;SDS011;9099;47.958;11.366;2024-02-28T02:58:12;9.55;;;8.55;;
17947;SDS011;9099;47.958;11.366;2024-02-28T03:00:39;12.88;;;10.35;;
17947;SDS011;9099;47.958;11.366;2024-02-28T03:03:06;11.20;;;9.27;;
17947;SDS011;9099;47.958;11.366;2024-02-28T03:05:33;10.90;;;8.93;;
17947;SDS011;9099;47.958;11.366;2024-02-28T03:08:00;9.50;;;8.50;;
17947;SDS011;9099;47.958;11.366;2024-02-28T03:10:27;9.25;;;8.35;;
17947;SDS011;9099;47.958;11.366;2024-02-28T03:12:55;11.13;;;9.27;;
17947;SDS011;9099;47.958;11.366;2024-02-28T03:15:23;10.75;;;8.63;;
17947;SDS011;9099;47.958;11.366;2024-02-28T03:17:50;10.57;;;9.10;;
17947;SDS011;9099;47.958;11.366;2024-02-28T03:20:16;11.90;;;9.50;;
17947;SDS011;9099;47.958;11.366;2024-02-28T03:22:43;12.02;;;9.45;;
17947;SDS011;9099;47.958;11.366;2024-02-28T03:25:09;10.40;;;9.30;;
17947;SDS011;9099;47.958;11.366;2024-02-28T03:27:36;10.82;;;9.68;;
17947;SDS011;9099;47.958;11.366;2024-02-28T03:30:04;12.45;;;8.77;;
17947;SDS011;9099;47.958;11.366;2024-02-28T03:32:33;13.63;;;8.70;;
17947;SDS011;9099;47.958;11.366;2024-02-28T03:35:00;10.48;;;9.25;;
17947;SDS011;9099;47.958;11.366;2024-02-28T03:37:27;11.40;;;9.02;;
17947;SDS011;9099;47.958;11.366;2024-02-28T03:39:54;10.55;;;9.23;;
17947;SDS011;9099;47.958;11.366;2024-02-28T03:42:21;13.57;;;10.25;;
17947;SDS011;9099;47.958;11.366;2024-02-28T03:44:48;13.52;;;11.18;;
17947;SDS011;9099;47.958;11.366;2024-02-28T03:47:15;11.82;;;10.02;;
17947;SDS011;9099;47.958;11.366;2024-02-28T03:49:43;15.00;;;11.05;;
17947;SDS011;9099;47.958;11.366;2024-02-28T03:52:10;13.98;;;10.57;;
17947;SDS011;9099;47.958;11.366;2024-02-28T03:54:37;11.13;;;9.70;;
17947;SDS011;9099;47.958;11.366;2024-02-28T03:57:04;14.88;;;11.40;;
17947;SDS011;9099;47.958;11.366;2024-02-28T03:59:31;13.05;;;10.77;;
17947;SDS011;9099;47.958;11.366;2024-02-28T04:01:58;13.50;;;11.32;;
17947;SDS011;9099;47.958;11.366;2024-02-28T04:04:24;14.10;;;11.60;;
17947;SDS011;9099;47.958;11.366;2024-02-28T04:06:53;12.20;;;10.60;;
17947;SDS011;9099;47.958;11.366;2024-02-28T04:09:20;12.27;;;10.18;;
17947;SDS011;9099;47.958;11.366;2024-02-28T04:11:47;12.93;;;10.13;;
17947;SDS011;9099;47.958;11.366;2024-02-28T04:14:14;12.35;;;10.23;;
17947;SDS011;9099;47.958;11.366;2024-02-28T04:16:41;14.27;;;10.93;;
17947;SDS011;9099;47.958;11.366;2024-02-28T04:19:09;10.73;;;9.45;;
17947;SDS011;9099;47.958;11.366;2024-02-28T04:21:37;12.73;;;10.18;;
17947;SDS011;9099;47.958;11.366;2024-02-28T04:24:05;12.10;;;10.45;;
17947;SDS011;9099;47.958;11.366;2024-02-28T04:26:33;15.70;;;12.07;;
17947;SDS011;9099;47.958;11.366;2024-02-28T04:29:01;15.32;;;12.70;;
17947;SDS011;9099;47.958;11.366;2024-02-28T04:31:30;21.05;;;15.50;;
17947;SDS011;9099;47.958;11.366;2024-02-28T04:33:57;22.60;;;15.80;;
17947;SDS011;9099;47.958;11.366;2024-02-28T04:36:24;20.50;;;14.60;;
17947;SDS011;9099;47.958;11.366;2024-02-28T04:38:51;19.00;;;14.27;;
17947;SDS011;9099;47.958;11.366;2024-02-28T04:41:19;20.08;;;15.30;;
17947;SDS011;9099;47.958;11.366;2024-02-28T04:43:46;22.73;;;15.80;;
17947;SDS011;9099;47.958;11.366;2024-02-28T04:46:13;18.55;;;14.27;;
17947;SDS011;9099;47.958;11.366;2024-02-28T04:48:40;19.60;;;13.90;;
17947;SDS011;9099;47.958;11.366;2024-02-28T04:51:07;26.73;;;18.60;;
17947;SDS011;9099;47.958;11.366;2024-02-28T04:53:34;21.90;;;15.73;;
17947;SDS011;9099;47.958;11.366;2024-02-28T04:56:00;23.88;;;16.17;;
17947;SDS011;9099;47.958;11.366;2024-02-28T04:58:29;21.20;;;15.18;;
17947;SDS011;9099;47.958;11.366;2024-02-28T05:00:56;25.77;;;16.75;;
17947;SDS011;9099;47.958;11.366;2024-02-28T05:03:23;23.48;;;16.42;;
17947;SDS011;9099;47.958;11.366;2024-02-28T05:05:51;23.10;;;15.63;;
17947;SDS011;9099;47.958;11.366;2024-02-28T05:08:19;26.48;;;17.58;;
17947;SDS011;9099;47.958;11.366;2024-02-28T05:10:46;25.58;;;18.17;;
17947;SDS011;9099;47.958;11.366;2024-02-28T05:13:13;22.88;;;16.45;;
17947;SDS011;9099;47.958;11.366;2024-02-28T05:15:41;22.50;;;16.48;;
17947;SDS011;9099;47.958;11.366;2024-02-28T05:18:08;22.92;;;16.63;;
17947;SDS011;9099;47.958;11.366;2024-02-28T05:20:35;24.27;;;16.65;;
17947;SDS011;9099;47.958;11.366;2024-02-28T05:23:02;25.38;;;16.95;;
17947;SDS011;9099;47.958;11.366;2024-02-28T05:25:29;25.80;;;17.25;;
17947;SDS011;9099;47.958;11.366;2024-02-28T05:27:56;26.60;;;17.73;;
17947;SDS011;9099;47.958;11.366;2024-02-28T05:30:23;23.75;;;17.08;;
17947;SDS011;9099;47.958;11.366;2024-02-28T05:32:52;27.20;;;18.10;;
17947;SDS011;9099;47.958;11.366;2024-02-28T05:35:19;27.77;;;17.02;;
17947;SDS011;9099;47.958;11.366;2024-02-28T05:37:46;22.40;;;16.42;;
17947;SDS011;9099;47.958;11.366;2024-02-28T05:40:12;27.05;;;17.75;;
17947;SDS011;9099;47.958;11.366;2024-02-28T05:42:39;26.65;;;17.13;;
17947;SDS011;9099;47.958;11.366;2024-02-28T05:45:08;28.17;;;19.10;;
17947;SDS011;9099;47.958;11.366;2024-02-28T05:47:35;23.33;;;16.92;;
17947;SDS011;9099;47.958;11.366;2024-02-28T05:50:04;23.60;;;17.00;;
17947;SDS011;9099;47.958;11.366;2024-02-28T05:52:32;23.58;;;17.30;;
17947;SDS011;9099;47.958;11.366;2024-02-28T05:54:59;24.70;;;17.15;;
17947;SDS011;9099;47.958;11.366;2024-02-28T05:57:26;28.15;;;18.20;;
17947;SDS011;9099;47.958;11.366;2024-02-28T05:59:53;27.70;;;18.95;;
17947;SDS011;9099;47.958;11.366;2024-02-28T06:02:20;26.40;;;18.00;;
17947;SDS011;9099;47.958;11.366;2024-02-28T06:04:47;28.20;;;18.90;;
17947;SDS011;9099;47.958;11.366;2024-02-28T06:07:15;26.67;;;17.83;;
17947;SDS011;9099;47.958;11.366;2024-02-28T06:09:42;25.60;;;18.10;;
17947;SDS011;9099;47.958;11.366;2024-02-28T06:12:09;23.92;;;17.38;;
17947;SDS011;9099;47.958;11.366;2024-02-28T06:14:36;26.60;;;17.95;;
17947;SDS011;9099;47.958;11.366;2024-02-28T06:17:03;25.35;;;17.52;;
17947;SDS011;9099;47.958;11.366;2024-02-28T06:19:30;29.35;;;18.92;;
17947;SDS011;9099;47.958;11.366;2024-02-28T06:21:56;27.50;;;18.90;;
17947;SDS011;9099;47.958;11.366;2024-02-28T06:24:25;24.23;;;17.17;;
17947;SDS011;9099;47.958;11.366;2024-02-28T06:26:52;24.85;;;18.30;;
17947;SDS011;9099;47.958;11.366;2024-02-28T06:29:19;29.65;;;19.02;;
17947;SDS011;9099;47.958;11.366;2024-02-28T06:31:49;25.77;;;18.00;;
17947;SDS011;9099;47.958;11.366;2024-02-28T06:34:17;25.60;;;17.85;;
17947;SDS011;9099;47.958;11.366;2024-02-28T06:36:44;27.63;;;18.40;;
17947;SDS011;9099;47.958;11.366;2024-02-28T06:39:11;28.40;;;19.52;;
17947;SDS011;9099;47.958;11.366;2024-02-28T06:41:39;24.02;;;17.83;;
17947;SDS011;9099;47.958;11.366;2024-02-28T06:44:06;26.63;;;18.35;;
17947;SDS011;9099;47.958;11.366;2024-02-28T06:46:33;24.50;;;18.17;;
17947;SDS011;9099;47.958;11.366;2024-02-28T06:49:00;27.17;;;19.15;;
17947;SDS011;9099;47.958;11.366;2024-02-28T06:51:27;26.67;;;18.75;;
17947;SDS011;9099;47.958;11.366;2024-02-28T06:53:54;29.67;;;19.90;;
17947;SDS011;9099;47.958;11.366;2024-02-28T06:56:21;27.73;;;19.45;;
17947;SDS011;9099;47.958;11.366;2024-02-28T06:58:49;29.65;;;18.70;;
17947;SDS011;9099;47.958;11.366;2024-02-28T07:01:17;25.45;;;18.15;;
17947;SDS011;9099;47.958;11.366;2024-02-28T07:03:44;26.58;;;18.05;;
17947;SDS011;9099;47.958;11.366;2024-02-28T07:06:11;29.15;;;18.95;;
17947;SDS011;9099;47.958;11.366;2024-02-28T07:08:38;29.30;;;19.90;;
17947;SDS011;9099;47.958;11.366;2024-02-28T07:11:05;29.13;;;20.13;;
17947;SDS011;9099;47.958;11.366;2024-02-28T07:13:40;28.20;;;18.90;;
17947;SDS011;9099;47.958;11.366;2024-02-28T07:16:09;26.10;;;18.50;;
17947;SDS011;9099;47.958;11.366;2024-02-28T07:18:36;28.50;;;19.90;;
17947;SDS011;9099;47.958;11.366;2024-02-28T07:21:03;25.48;;;18.75;;
17947;SDS011;9099;47.958;11.366;2024-02-28T07:23:31;29.10;;;19.45;;
17947;SDS011;9099;47.958;11.366;2024-02-28T07:25:58;29.92;;;18.52;;
17947;SDS011;9099;47.958;11.366;2024-02-28T07:28:25;29.00;;;19.77;;
17947;SDS011;9099;47.958;11.366;2024-02-28T07:30:52;28.92;;;19.02;;
17947;SDS011;9099;47.958;11.366;2024-02-28T07:33:20;27.45;;;19.08;;
17947;SDS011;9099;47.958;11.366;2024-02-28T07:35:48;26.77;;;18.40;;
17947;SDS011;9099;47.958;11.366;2024-02-28T07:38:16;30.67;;;20.23;;
17947;SDS011;9099;47.958;11.366;2024-02-28T07:40:45;29.58;;;19.85;;
17947;SDS011;9099;47.958;11.366;2024-02-28T07:43:12;25.73;;;18.67;;
17947;SDS011;9099;47.958;11.366;2024-02-28T07:45:39;25.33;;;18.15;;
17947;SDS011;9099;47.958;11.366;2024-02-28T07:48:06;28.27;;;19.17;;
17947;SDS011;9099;47.958;11.366;2024-02-28T07:50:34;30.17;;;20.05;;
17947;SDS011;9099;47.958;11.366;2024-02-28T07:53:03;27.77;;;19.33;;
17947;SDS011;9099;47.958;11.366;2024-02-28T07:55:30;30.15;;;19.55;;
17947;SDS011;9099;47.958;11.366;2024-02-28T07:57:57;28.90;;;19.85;;
17947;SDS011;9099;47.958;11.366;2024-02-28T08:00:23;28.88;;;18.83;;
17947;SDS011;9099;47.958;11.366;2024-02-28T08:02:51;28.50;;;19.05;;
17947;SDS011;9099;47.958;11.366;2024-02-28T08:05:18;30.08;;;19.48;;
17947;SDS011;9099;47.958;11.366;2024-02-28T08:07:46;31.55;;;20.67;;
17947;SDS011;9099;47.958;11.366;2024-02-28T08:10:13;30.10;;;20.73;;
17947;SDS011;9099;47.958;11.366;2024-02-28T08:12:40;27.83;;;19.48;;
17947;SDS011;9099;47.958;11.366;2024-02-28T08:15:07;29.67;;;19.77;;
17947;SDS011;9099;47.958;11.366;2024-02-28T08:17:35;30.00;;;21.17;;
17947;SDS011;9099;47.958;11.366;2024-02-28T08:20:03;32.00;;;21.48;;
17947;SDS011;9099;47.958;11.366;2024-02-28T08:22:31;28.45;;;19.75;;
17947;SDS011;9099;47.958;11.366;2024-02-28T08:25:00;36.22;;;21.75;;
17947;SDS011;9099;47.958;11.366;2024-02-28T08:27:27;34.50;;;22.15;;
17947;SDS011;9099;47.958;11.366;2024-02-28T08:29:54;35.25;;;22.80;;
17947;SDS011;9099;47.958;11.366;2024-02-28T08:32:21;35.85;;;23.00;;
17947;SDS011;9099;47.958;11.366;2024-02-28T08:34:48;35.63;;;21.77;;
17947;SDS011;9099;47.958;11.366;2024-02-28T08:37:15;37.15;;;22.35;;
17947;SDS011;9099;47.958;11.366;2024-02-28T08:39:42;39.00;;;23.05;;
17947;SDS011;9099;47.958;11.366;2024-02-28T08:42:10;40.55;;;24.17;;
17947;SDS011;9099;47.958;11.366;2024-02-28T08:44:37;38.72;;;24.75;;
17947;SDS011;9099;47.958;11.366;2024-02-28T08:47:05;37.97;;;22.75;;
17947;SDS011;9099;47.958;11.366;2024-02-28T08:49:34;37.60;;;22.88;;
17947;SDS011;9099;47.958;11.366;2024-02-28T08:52:01;37.70;;;22.40;;
17947;SDS011;9099;47.958;11.366;2024-02-28T08:54:28;37.83;;;22.77;;
17947;SDS011;9099;47.958;11.366;2024-02-28T08:56:55;37.15;;;20.85;;
17947;SDS011;9099;47.958;11.366;2024-02-28T08:59:23;33.25;;;21.23;;
17947;SDS011;9099;47.958;11.366;2024-02-28T09:01:50;35.85;;;23.50;;
17947;SDS011;9099;47.958;11.366;2024-02-28T09:04:17;38.25;;;23.77;;
17947;SDS011;9099;47.958;11.366;2024-02-28T09:06:44;32.67;;;21.33;;
17947;SDS011;9099;47.958;11.366;2024-02-28T09:09:11;34.55;;;22.02;;
17947;SDS011;9099;47.958;11.366;2024-02-28T09:11:39;32.05;;;21.42;;
17947;SDS011;9099;47.958;11.366;2024-02-28T09:14:06;33.78;;;21.42;;
17947;SDS011;9099;47.958;11.366;2024-02-28T09:16:35;32.83;;;20.50;;
17947;SDS011;9099;47.958;11.366;2024-02-28T09:19:02;33.50;;;21.48;;
17947;SDS011;9099;47.958;11.366;2024-02-28T09:21:30;33.03;;;21.40;;
17947;SDS011;9099;47.958;11.366;2024-02-28T09:23:57;31.60;;;21.33;;
17947;SDS011;9099;47.958;11.366;2024-02-28T09:26:24;32.75;;;20.98;;
17947;SDS011;9099;47.958;11.366;2024-02-28T09:28:52;31.98;;;20.63;;
17947;SDS011;9099;47.958;11.366;2024-02-28T09:31:18;35.60;;;22.30;;
17947;SDS011;9099;47.958;11.366;2024-02-28T09:33:47;32.40;;;20.65;;
17947;SDS011;9099;47.958;11.366;2024-02-28T09:36:14;36.55;;;22.55;;
17947;SDS011;9099;47.958;11.366;2024-02-28T09:38:41;36.08;;;21.73;;
17947;SDS011;9099;47.958;11.366;2024-02-28T09:41:09;31.85;;;20.83;;
17947;SDS011;9099;47.958;11.366;2024-02-28T09:43:41;30.98;;;19.55;;
17947;SDS011;9099;47.958;11.366;2024-02-28T09:46:08;36.50;;;21.98;;
17947;SDS011;9099;47.958;11.366;2024-02-28T09:48:38;30.65;;;20.67;;
17947;SDS011;9099;47.958;11.366;2024-02-28T09:51:07;30.30;;;19.10;;
17947;SDS011;9099;47.958;11.366;2024-02-28T09:53:35;31.35;;;21.33;;
17947;SDS011;9099;47.958;11.366;2024-02-28T09:56:03;31.23;;;20.75;;
17947;SDS011;9099;47.958;11.366;2024-02-28T09:58:32;29.55;;;18.48;;
17947;SDS011;9099;47.958;11.366;2024-02-28T10:01:03;28.92;;;19.88;;
17947;SDS011;9099;47.958;11.366;2024-02-28T10:03:34;28.38;;;19.73;;
17947;SDS011;9099;47.958;11.366;2024-02-28T10:06:03;32.58;;;20.17;;
17947;SDS011;9099;47.958;11.366;2024-02-28T10:08:31;28.38;;;19.48;;
17947;SDS011;9099;47.958;11.366;2024-02-28T10:11:00;29.48;;;20.00;;
17947;SDS011;9099;47.958;11.366;2024-02-28T10:13:27;32.45;;;20.48;;
17947;SDS011;9099;47.958;11.366;2024-02-28T10:15:54;31.05;;;19.67;;
17947;SDS011;9099;47.958;11.366;2024-02-28T10:18:21;27.08;;;18.02;;
17947;SDS011;9099;47.958;11.366;2024-02-28T10:20:48;30.52;;;19.67;;
17947;SDS011;9099;47.958;11.366;2024-02-28T10:23:15;29.23;;;18.77;;
17947;SDS011;9099;47.958;11.366;2024-02-28T10:25:44;26.92;;;18.92;;
17947;SDS011;9099;47.958;11.366;2024-02-28T10:28:12;28.83;;;18.55;;
17947;SDS011;9099;47.958;11.366;2024-02-28T10:30:41;25.92;;;17.67;;
17947;SDS011;9099;47.958;11.366;2024-02-28T10:33:11;27.45;;;19.15;;
17947;SDS011;9099;47.958;11.366;2024-02-28T10:35:39;29.45;;;20.27;;
17947;SDS011;9099;47.958;11.366;2024-02-28T10:38:07;31.20;;;20.17;;
17947;SDS011;9099;47.958;11.366;2024-02-28T10:40:37;27.98;;;19.70;;
17947;SDS011;9099;47.958;11.366;2024-02-28T10:43:05;29.92;;;19.27;;
17947;SDS011;9099;47.958;11.366;2024-02-28T10:45:35;27.48;;;19.23;;
17947;SDS011;9099;47.958;11.366;2024-02-28T10:48:03;27.70;;;19.08;;
17947;SDS011;9099;47.958;11.366;2024-02-28T10:50:31;24.52;;;17.80;;
17947;SDS011;9099;47.958;11.366;2024-02-28T10:52:59;26.63;;;19.35;;
17947;SDS011;9099;47.958;11.366;2024-02-28T10:55:30;26.05;;;18.30;;
17947;SDS011;9099;47.958;11.366;2024-02-28T10:58:01;26.38;;;18.85;;
17947;SDS011;9099;47.958;11.366;2024-02-28T11:00:31;25.88;;;19.05;;
17947;SDS011;9099;47.958;11.366;2024-02-28T11:02:58;25.33;;;18.27;;
17947;SDS011;9099;47.958;11.366;2024-02-28T11:05:35;26.85;;;18.70;;
17947;SDS011;9099;47.958;11.366;2024-02-28T11:08:03;26.83;;;18.58;;
17947;SDS011;9099;47.958;11.366;2024-02-28T11:10:31;27.63;;;18.48;;
17947;SDS011;9099;47.958;11.366;2024-02-28T11:12:59;29.60;;;18.77;;
17947;SDS011;9099;47.958;11.366;2024-02-28T11:15:26;27.23;;;18.52;;
17947;SDS011;9099;47.958;11.366;2024-02-28T11:17:54;27.88;;;19.10;;
17947;SDS011;9099;47.958;11.366;2024-02-28T11:20:32;25.45;;;18.13;;
17947;SDS011;9099;47.958;11.366;2024-02-28T11:22:59;26.08;;;18.35;;
17947;SDS011;9099;47.958;11.366;2024-02-28T11:25:27;27.13;;;18.98;;
17947;SDS011;9099;47.958;11.366;2024-02-28T11:27:54;26.58;;;18.20;;
17947;SDS011;9099;47.958;11.366;2024-02-28T11:30:21;23.60;;;17.65;;
17947;SDS011;9099;47.958;11.366;2024-02-28T11:32:51;24.50;;;17.55;;
17947;SDS011;9099;47.958;11.366;2024-02-28T11:35:20;23.50;;;18.38;;
17947;SDS011;9099;47.958;11.366;2024-02-28T11:37:47;24.48;;;16.88;;
17947;SDS011;9099;47.958;11.366;2024-02-28T11:40:15;21.83;;;16.42;;
17947;SDS011;9099;47.958;11.366;2024-02-28T11:42:42;23.83;;;18.30;;
17947;SDS011;9099;47.958;11.366;2024-02-28T11:45:09;28.17;;;19.92;;
17947;SDS011;9099;47.958;11.366;2024-02-28T11:47:36;23.92;;;18.02;;
17947;SDS011;9099;47.958;11.366;2024-02-28T11:50:04;25.25;;;17.50;;
17947;SDS011;9099;47.958;11.366;2024-02-28T11:52:33;23.63;;;18.13;;
17947;SDS011;9099;47.958;11.366;2024-02-28T11:55:00;29.20;;;19.80;;
17947;SDS011;9099;47.958;11.366;2024-02-28T11:57:27;26.35;;;18.77;;
17947;SDS011;9099;47.958;11.366;2024-02-28T11:59:58;22.95;;;17.55;;
17947;SDS011;9099;47.958;11.366;2024-02-28T12:02:28;25.27;;;19.15;;
17947;SDS011;9099;47.958;11.366;2024-02-28T12:04:59;24.13;;;18.13;;
17947;SDS011;9099;47.958;11.366;2024-02-28T12:07:26;25.25;;;17.65;;
17947;SDS011;9099;47.958;11.366;2024-02-28T12:09:55;29.70;;;20.80;;
17947;SDS011;9099;47.958;11.366;2024-02-28T12:12:22;23.65;;;17.63;;
17947;SDS011;9099;47.958;11.366;2024-02-28T12:14:49;27.00;;;18.08;;
17947;SDS011;9099;47.958;11.366;2024-02-28T12:17:17;26.33;;;18.08;;
17947;SDS011;9099;47.958;11.366;2024-02-28T12:19:44;25.63;;;18.98;;
17947;SDS011;9099;47.958;11.366;2024-02-28T12:22:11;25.27;;;18.92;;
17947;SDS011;9099;47.958;11.366;2024-02-28T12:24:37;27.52;;;19.35;;
17947;SDS011;9099;47.958;11.366;2024-02-28T12:27:06;28.25;;;19.40;;
17947;SDS011;9099;47.958;11.366;2024-02-28T12:29:33;28.75;;;20.13;;
17947;SDS011;9099;47.958;11.366;2024-02-28T12:32:00;27.58;;;19.65;;
17947;SDS011;9099;47.958;11.366;2024-02-28T12:34:27;28.60;;;19.52;;
17947;SDS011;9099;47.958;11.366;2024-02-28T12:36:53;27.90;;;19.75;;
17947;SDS011;9099;47.958;11.366;2024-02-28T12:39:20;28.27;;;19.25;;
17947;SDS011;9099;47.958;11.366;2024-02-28T12:41:47;27.45;;;19.10;;
17947;SDS011;9099;47.958;11.366;2024-02-28T12:44:16;27.40;;;19.40;;
17947;SDS011;9099;47.958;11.366;2024-02-28T12:46:43;27.52;;;19.13;;
17947;SDS011;9099;47.958;11.366;2024-02-28T12:49:10;30.77;;;21.92;;
17947;SDS011;9099;47.958;11.366;2024-02-28T12:51:37;30.60;;;20.35;;
17947;SDS011;9099;47.958;11.366;2024-02-28T12:54:05;32.50;;;21.70;;
17947;SDS011;9099;47.958;11.366;2024-02-28T12:56:32;30.63;;;21.05;;
17947;SDS011;9099;47.958;11.366;2024-02-28T12:59:00;31.25;;;21.02;;
17947;SDS011;9099;47.958;11.366;2024-02-28T13:01:28;32.15;;;21.42;;
17947;SDS011;9099;47.958;11.366;2024-02-28T13:03:56;30.88;;;20.08;;
17947;SDS011;9099;47.958;11.366;2024-02-28T13:06:23;28.63;;;20.45;;
17947;SDS011;9099;47.958;11.366;2024-02-28T13:08:50;29.63;;;20.23;;
17947;SDS011;9099;47.958;11.366;2024-02-28T13:11:18;36.28;;;20.27;;
17947;SDS011;9099;47.958;11.366;2024-02-28T13:13:46;32.17;;;20.10;;
17947;SDS011;9099;47.958;11.366;2024-02-28T13:16:13;30.05;;;20.40;;
17947;SDS011;9099;47.958;11.366;2024-02-28T13:18:41;28.40;;;19.77;;
17947;SDS011;9099;47.958;11.366;2024-02-28T13:21:08;30.20;;;19.48;;
17947;SDS011;9099;47.958;11.366;2024-02-28T13:23:35;32.17;;;20.88;;
17947;SDS011;9099;47.958;11.366;2024-02-28T13:26:03;32.13;;;21.13;;
17947;SDS011;9099;47.958;11.366;2024-02-28T13:28:30;30.65;;;20.95;;
17947;SDS011;9099;47.958;11.366;2024-02-28T13:30:58;32.83;;;21.38;;
17947;SDS011;9099;47.958;11.366;2024-02-28T13:33:25;30.58;;;21.10;;
17947;SDS011;9099;47.958;11.366;2024-02-28T13:35:54;34.42;;;20.63;;
17947;SDS011;9099;47.958;11.366;2024-02-28T13:38:21;29.85;;;20.08;;
17947;SDS011;9099;47.958;11.366;2024-02-28T13:40:48;29.40;;;20.20;;
17947;SDS011;9099;47.958;11.366;2024-02-28T13:43:16;27.92;;;19.20;;
17947;SDS011;9099;47.958;11.366;2024-02-28T13:45:46;31.95;;;20.05;;
17947;SDS011;9099;47.958;11.366;2024-02-28T13:48:15;28.70;;;20.00;;
17947;SDS011;9099;47.958;11.366;2024-02-28T13:50:43;29.52;;;20.40;;
17947;SDS011;9099;47.958;11.366;2024-02-28T13:53:12;29.98;;;20.08;;
17947;SDS011;9099;47.958;11.366;2024-02-28T13:55:40;29.05;;;20.13;;
17947;SDS011;9099;47.958;11.366;2024-02-28T13:58:07;28.77;;;20.05;;
17947;SDS011;9099;47.958;11.366;2024-02-28T14:00:35;28.70;;;19.23;;
17947;SDS011;9099;47.958;11.366;2024-02-28T14:03:03;27.73;;;18.13;;
17947;SDS011;9099;47.958;11.366;2024-02-28T14:05:32;29.60;;;20.20;;
17947;SDS011;9099;47.958;11.366;2024-02-28T14:07:59;25.65;;;18.17;;
17947;SDS011;9099;47.958;11.366;2024-02-28T14:10:30;26.13;;;19.42;;
17947;SDS011;9099;47.958;11.366;2024-02-28T14:12:57;24.95;;;16.88;;
17947;SDS011;9099;47.958;11.366;2024-02-28T14:15:24;28.13;;;17.90;;
17947;SDS011;9099;47.958;11.366;2024-02-28T14:17:51;28.10;;;18.20;;
17947;SDS011;9099;47.958;11.366;2024-02-28T14:20:18;26.30;;;18.42;;
17947;SDS011;9099;47.958;11.366;2024-02-28T14:22:45;24.63;;;17.95;;
17947;SDS011;9099;47.958;11.366;2024-02-28T14:25:13;27.15;;;19.08;;
17947;SDS011;9099;47.958;11.366;2024-02-28T14:27:43;30.40;;;19.30;;